HAU weather

Haugesund Airport
Karm√ły, Rogaland, Norway

Public forecast

Using degrees Celsius for public forecast. Weather courtesy of forecast.io.

METAR (pilot weather report)

Retrieved 2019/03/23 01:20 UTC (40 minutes ago):

ENHD 230120Z AUTO 24019KT 9999 FEW070/// 06/02 Q1015

TAF (pilot weather forecast)

Closest forecast is Stavanger Airport Sola, 31.1 nm (57.6 km) SSE. Retrieved 2019/03/23 00:43 UTC (1 hour ago):

TAF ENZV 222300Z 2300/2324 25015KT 9999 FEW010 BKN040 BECMG 2306/2309 27022G35KT TEMPO 2308/2324 SHRA BKN014CB BECMG 2316/2318 29020KT BECMG 2322/2324 23012KT